Time;durP1;ratioP1;P1;durP2;ratioP2;P2;SDS_P1;SDS_P2;PMS_P1;PMS_P2;Temp;Humidity;BMP_temperature;BMP_pressure;BME280_temperature;BME280_humidity;BME280_pressure;Samples;Min_cycle;Max_cycle;Signal;HPM_P1;HPM_P2
2022/08/03 00:01:42;;;;;;;9.05;1.55;;;18.70;99.90;;;;;;5017561;28;20416;-70
2022/08/03 00:04:09;;;;;;;6.25;1.38;;;18.70;99.90;;;;;;5036577;28;20033;-69
2022/08/03 00:06:35;;;;;;;9.73;1.48;;;18.80;99.90;;;;;;5015066;28;20244;-69
2022/08/03 00:09:02;;;;;;;9.60;1.77;;;18.80;99.90;;;;;;5017921;28;20052;-69
2022/08/03 00:11:28;;;;;;;11.05;1.75;;;18.70;99.90;;;;;;5014561;28;20025;-69
2022/08/03 00:13:54;;;;;;;11.88;1.73;;;18.70;99.90;;;;;;5034130;28;20036;-69
2022/08/03 00:16:19;;;;;;;6.80;1.27;;;18.70;99.90;;;;;;5016248;28;20049;-70
2022/08/03 00:18:45;;;;;;;10.05;1.70;;;18.60;99.90;;;;;;5001242;28;20040;-68
2022/08/03 00:21:11;;;;;;;7.47;1.48;;;18.60;99.90;;;;;;5014749;28;20048;-70
2022/08/03 00:23:37;;;;;;;8.63;1.65;;;18.60;99.90;;;;;;5035809;28;20033;-70
2022/08/03 00:26:03;;;;;;;8.43;1.50;;;18.80;99.90;;;;;;5033711;28;20506;-70
2022/08/03 00:28:28;;;;;;;7.50;1.60;;;18.70;99.90;;;;;;5033520;28;20414;-70
2022/08/03 00:30:57;;;;;;;9.52;1.88;;;18.60;99.90;;;;;;5017036;28;20115;-69
2022/08/03 00:33:23;;;;;;;7.35;1.52;;;18.70;99.90;;;;;;5020863;28;20261;-69
2022/08/03 00:35:48;;;;;;;10.98;2.20;;;18.60;99.90;;;;;;5015427;28;20096;-69
2022/08/03 00:38:14;;;;;;;9.20;1.80;;;18.70;99.90;;;;;;5036281;28;20047;-70
2022/08/03 00:40:40;;;;;;;8.02;1.80;;;18.60;99.90;;;;;;5023778;28;20060;-71
2022/08/03 00:43:06;;;;;;;9.75;1.60;;;18.60;99.90;;;;;;5033950;28;20053;-69
2022/08/03 00:45:35;;;;;;;8.95;1.83;;;18.70;99.90;;;;;;5015196;28;20521;-70
2022/08/03 00:48:02;;;;;;;11.32;1.95;;;18.80;99.90;;;;;;5034822;28;20041;-71
2022/08/03 00:50:30;;;;;;;7.32;1.73;;;18.70;99.90;;;;;;5038692;28;20692;-71
2022/08/03 00:52:58;;;;;;;9.77;1.83;;;18.80;99.90;;;;;;5035707;28;20653;-69
2022/08/03 00:55:24;;;;;;;9.38;2.17;;;18.80;99.90;;;;;;5020065;28;20155;-71
2022/08/03 00:57:50;;;;;;;11.90;2.15;;;18.70;99.90;;;;;;5018514;28;20648;-69
2022/08/03 01:00:22;;;;;;;12.90;2.25;;;18.80;99.90;;;;;;5032996;28;20083;-69
2022/08/03 01:02:47;;;;;;;11.27;1.80;;;18.80;99.90;;;;;;5032533;28;20041;-70
2022/08/03 01:05:14;;;;;;;11.63;2.47;;;18.80;99.90;;;;;;5033216;28;20052;-70
2022/08/03 01:08:11;;;;;;;11.63;1.90;;;18.80;99.90;;;;;;5013205;28;20056;-71
2022/08/03 01:11:09;;;;;;;9.30;2.65;;;18.80;99.90;;;;;;4967548;28;20060;-69
2022/08/03 01:13:47;;;;;;;9.18;2.08;;;18.80;99.90;;;;;;5015849;28;20032;-68
2022/08/03 01:16:40;;;;;;;10.77;2.28;;;18.80;99.90;;;;;;5033056;28;20049;-72
2022/08/03 01:19:35;;;;;;;5.70;1.60;;;18.80;99.90;;;;;;5028400;28;20577;-70
2022/08/03 01:22:21;;;;;;;10.10;2.25;;;18.60;99.90;;;;;;5037368;28;20144;-68
2022/08/03 01:25:22;;;;;;;10.02;1.85;;;18.70;99.90;;;;;;5036051;28;20055;-69
2022/08/03 01:28:24;;;;;;;5.65;1.90;;;18.70;99.90;;;;;;5019282;28;20072;-69
2022/08/03 01:30:53;;;;;;;10.30;2.33;;;18.60;99.90;;;;;;5031374;28;20653;-70
2022/08/03 01:33:23;;;;;;;9.05;2.40;;;18.70;99.90;;;;;;5028659;28;20056;-71
2022/08/03 01:36:00;;;;;;;9.38;1.95;;;18.60;99.90;;;;;;5037439;28;20044;-69
2022/08/03 01:38:32;;;;;;;10.50;2.10;;;18.50;99.90;;;;;;5015888;28;20101;-69
2022/08/03 01:41:14;;;;;;;7.95;1.95;;;18.50;99.90;;;;;;5035609;28;20080;-70
2022/08/03 01:43:44;;;;;;;12.55;1.80;;;18.50;99.90;;;;;;5035347;28;20297;-70
2022/08/03 01:46:10;;;;;;;8.65;1.70;;;18.50;99.90;;;;;;5034614;28;20040;-71
2022/08/03 01:48:38;;;;;;;7.45;1.58;;;18.40;99.90;;;;;;5018497;28;20431;-70
2022/08/03 01:51:07;;;;;;;10.13;1.98;;;18.40;99.90;;;;;;5010773;28;20076;-70
2022/08/03 01:53:34;;;;;;;9.25;1.90;;;18.50;99.90;;;;;;5015469;28;20075;-69
2022/08/03 01:56:02;;;;;;;9.07;1.52;;;18.40;99.90;;;;;;5013728;28;20048;-71
2022/08/03 01:58:29;;;;;;;6.53;1.80;;;18.40;99.90;;;;;;5014414;28;20056;-70
2022/08/03 02:00:59;;;;;;;8.52;1.75;;;18.40;99.90;;;;;;5030438;28;20782;-70
2022/08/03 02:03:27;;;;;;;7.07;2.00;;;18.30;99.90;;;;;;5028263;28;20068;-69
2022/08/03 02:05:55;;;;;;;8.18;1.60;;;18.40;99.90;;;;;;5038283;28;20417;-70
2022/08/03 02:08:24;;;;;;;6.78;1.30;;;18.30;99.90;;;;;;4999272;28;20051;-70
2022/08/03 02:10:51;;;;;;;8.18;1.80;;;18.30;99.90;;;;;;5012951;28;20052;-69
2022/08/03 02:13:19;;;;;;;8.25;1.48;;;18.20;99.90;;;;;;5000147;28;20121;-71
2022/08/03 02:15:46;;;;;;;6.57;1.60;;;18.30;99.90;;;;;;5030620;28;20604;-70
2022/08/03 02:18:13;;;;;;;6.07;1.48;;;18.20;99.90;;;;;;5029385;28;20089;-70
2022/08/03 02:20:42;;;;;;;7.00;1.85;;;18.30;99.90;;;;;;5039115;28;20045;-72
2022/08/03 02:23:08;;;;;;;7.78;1.80;;;18.20;99.90;;;;;;5016040;28;20423;-70
2022/08/03 02:25:39;;;;;;;9.23;2.03;;;18.20;99.90;;;;;;4987581;28;20922;-71
2022/08/03 02:28:12;;;;;;;7.13;1.52;;;18.20;99.90;;;;;;5039591;28;20103;-69
2022/08/03 02:30:41;;;;;;;4.50;1.20;;;18.20;99.90;;;;;;5039815;28;20072;-70
2022/08/03 02:33:13;;;;;;;8.13;2.08;;;18.20;99.90;;;;;;5038119;28;20443;-69
2022/08/03 02:35:39;;;;;;;10.93;2.15;;;18.10;99.90;;;;;;5016529;28;20049;-70
2022/08/03 02:38:09;;;;;;;7.95;1.67;;;18.10;99.90;;;;;;5019918;28;20120;-70
2022/08/03 02:40:35;;;;;;;6.55;1.90;;;18.10;99.90;;;;;;5003430;28;20049;-70
2022/08/03 02:43:15;;;;;;;8.90;2.03;;;18.10;99.90;;;;;;5033770;28;20551;-70
2022/08/03 02:45:45;;;;;;;7.85;1.70;;;17.90;99.90;;;;;;5040083;28;20051;-70
2022/08/03 02:48:15;;;;;;;7.68;1.27;;;18.00;99.90;;;;;;5018285;28;20677;-69
2022/08/03 02:50:43;;;;;;;6.03;1.50;;;18.00;99.90;;;;;;5033901;28;20029;-70
2022/08/03 02:53:10;;;;;;;9.80;1.70;;;18.00;99.90;;;;;;5030166;28;20048;-68
2022/08/03 02:55:37;;;;;;;5.95;1.50;;;17.90;99.90;;;;;;5020436;28;20760;-69
2022/08/03 02:58:03;;;;;;;9.10;1.63;;;18.10;99.90;;;;;;4992745;28;20060;-70
2022/08/03 03:00:31;;;;;;;7.18;1.35;;;17.90;99.90;;;;;;5033302;28;20047;-69
2022/08/03 03:03:00;;;;;;;7.82;1.35;;;18.00;99.90;;;;;;5036321;28;20484;-70
2022/08/03 03:05:26;;;;;;;4.15;1.08;;;17.90;99.90;;;;;;5038384;28;20052;-72
2022/08/03 03:07:54;;;;;;;6.88;1.48;;;18.00;99.90;;;;;;5036050;28;20049;-70
2022/08/03 03:10:23;;;;;;;5.40;1.20;;;18.10;99.90;;;;;;5037695;28;20045;-70
2022/08/03 03:12:55;;;;;;;9.23;1.55;;;18.00;99.90;;;;;;5038203;28;20124;-70
2022/08/03 03:15:22;;;;;;;4.97;1.15;;;18.00;99.90;;;;;;5019752;28;20601;-70
2022/08/03 03:17:50;;;;;;;6.35;1.00;;;17.90;99.90;;;;;;5035639;28;20084;-70
2022/08/03 03:20:17;;;;;;;7.80;1.20;;;17.90;99.90;;;;;;5036711;28;20052;-70
2022/08/03 03:22:43;;;;;;;8.18;1.38;;;18.00;99.90;;;;;;5037908;28;20041;-70
2022/08/03 03:25:10;;;;;;;6.63;1.30;;;17.90;99.90;;;;;;5018090;28;20500;-71
2022/08/03 03:27:36;;;;;;;6.32;1.27;;;18.00;99.90;;;;;;5037971;28;20048;-71
2022/08/03 03:30:03;;;;;;;10.77;1.65;;;17.90;99.90;;;;;;5033576;28;20049;-69
2022/08/03 03:32:29;;;;;;;8.35;1.20;;;17.90;99.90;;;;;;5018111;28;20048;-72
2022/08/03 03:34:58;;;;;;;6.07;1.10;;;18.00;99.90;;;;;;5037694;28;20626;-70
2022/08/03 03:37:24;;;;;;;9.40;1.52;;;18.00;99.90;;;;;;5039371;28;20049;-70
2022/08/03 03:39:52;;;;;;;7.57;1.40;;;18.00;99.90;;;;;;5007656;28;20094;-69
2022/08/03 03:42:18;;;;;;;7.30;1.27;;;18.10;99.90;;;;;;5023919;28;20055;-69
2022/08/03 03:44:44;;;;;;;8.93;1.52;;;17.90;99.90;;;;;;5035064;28;20045;-68
2022/08/03 03:47:10;;;;;;;9.68;1.73;;;18.00;99.90;;;;;;5018930;28;20320;-69
2022/08/03 03:49:36;;;;;;;10.65;1.70;;;17.90;99.90;;;;;;5038312;28;20088;-68
2022/08/03 03:52:01;;;;;;;7.07;1.40;;;18.10;99.90;;;;;;5031890;28;20048;-69
2022/08/03 03:54:42;;;;;;;7.88;1.70;;;17.90;99.90;;;;;;5035338;28;20759;-69
2022/08/03 03:57:09;;;;;;;6.72;1.10;;;18.10;99.90;;;;;;5019408;28;20045;-69
2022/08/03 03:59:42;;;;;;;7.15;1.30;;;18.00;99.90;;;;;;5036558;28;20527;-70
2022/08/03 04:02:09;;;;;;;7.95;1.23;;;18.00;99.90;;;;;;5035365;28;20067;-71
2022/08/03 04:13:01;;;;;;;8.13;1.70;;;17.80;99.90;;;;;;5034089;28;20491;-70
2022/08/03 04:15:27;;;;;;;9.38;1.42;;;18.00;99.90;;;;;;5039871;28;20456;-72
2022/08/03 04:17:57;;;;;;;5.72;1.42;;;17.90;99.90;;;;;;5038584;28;20040;-70
2022/08/03 04:20:26;;;;;;;5.40;1.52;;;17.90;99.90;;;;;;5022593;28;20944;-70
2022/08/03 04:22:54;;;;;;;9.55;1.73;;;18.00;99.90;;;;;;5005126;28;20041;-71
2022/08/03 04:25:24;;;;;;;6.32;1.77;;;17.90;99.90;;;;;;5035384;28;20060;-71
2022/08/03 04:27:51;;;;;;;8.35;1.50;;;17.90;99.90;;;;;;5022733;28;20044;-70
2022/08/03 04:30:18;;;;;;;7.75;1.58;;;17.90;99.90;;;;;;5002134;28;20048;-70
2022/08/03 04:32:50;;;;;;;11.52;1.77;;;18.00;99.90;;;;;;5017876;28;20679;-70
2022/08/03 04:35:17;;;;;;;9.45;1.67;;;17.90;99.90;;;;;;5034085;28;20823;-70
2022/08/03 04:37:46;;;;;;;10.52;1.73;;;18.00;99.90;;;;;;5036161;28;21058;-70
2022/08/03 04:40:32;;;;;;;10.85;2.00;;;17.90;99.90;;;;;;5038271;28;20642;-72
2022/08/03 04:42:58;;;;;;;7.35;1.50;;;17.90;99.90;;;;;;5024657;28;20686;-71
2022/08/03 04:45:26;;;;;;;7.18;1.60;;;17.90;99.90;;;;;;5035727;28;20049;-70
2022/08/03 04:47:53;;;;;;;7.03;1.70;;;18.10;99.90;;;;;;5032163;28;20080;-69
2022/08/03 04:50:19;;;;;;;7.90;2.03;;;18.00;99.90;;;;;;5037641;28;20056;-69
2022/08/03 04:52:45;;;;;;;6.75;1.95;;;18.10;99.90;;;;;;5037937;28;20954;-69
2022/08/03 04:55:10;;;;;;;10.40;1.70;;;18.10;99.90;;;;;;5032938;28;20091;-68
2022/08/03 04:57:36;;;;;;;7.93;2.30;;;18.00;99.90;;;;;;5033470;28;20052;-69
2022/08/03 05:00:03;;;;;;;9.32;1.90;;;18.00;99.90;;;;;;5018798;28;20032;-69
2022/08/03 05:02:30;;;;;;;8.52;1.95;;;18.20;99.90;;;;;;5030216;28;20044;-70
2022/08/03 05:04:56;;;;;;;9.25;1.70;;;18.20;99.90;;;;;;5036217;28;20057;-70
2022/08/03 05:07:22;;;;;;;7.78;2.05;;;18.20;99.90;;;;;;5033068;28;20040;-71
2022/08/03 05:09:47;;;;;;;7.82;1.90;;;18.30;99.90;;;;;;5036379;28;20387;-69
2022/08/03 05:12:13;;;;;;;8.57;2.35;;;18.20;99.90;;;;;;5001379;28;20037;-70
2022/08/03 05:14:39;;;;;;;9.43;1.80;;;18.20;99.90;;;;;;5035977;28;20620;-70
2022/08/03 05:17:05;;;;;;;6.90;2.00;;;18.30;99.90;;;;;;5034970;28;20075;-70
2022/08/03 05:19:31;;;;;;;7.43;2.17;;;18.30;99.90;;;;;;5036901;28;20041;-69
2022/08/03 05:21:57;;;;;;;8.43;2.63;;;18.50;99.90;;;;;;5040979;28;20041;-69
2022/08/03 05:24:23;;;;;;;7.38;1.90;;;18.50;99.90;;;;;;5021695;28;20064;-69
2022/08/03 05:26:49;;;;;;;8.38;2.00;;;18.60;99.90;;;;;;5001682;28;20028;-70
2022/08/03 05:29:14;;;;;;;6.93;1.58;;;18.70;99.90;;;;;;5037298;28;20106;-71
2022/08/03 05:31:40;;;;;;;7.28;1.83;;;18.60;99.90;;;;;;5033887;28;20099;-69
2022/08/03 05:34:06;;;;;;;7.93;2.33;;;18.80;99.90;;;;;;5037031;28;20588;-69
2022/08/03 05:36:31;;;;;;;8.88;1.58;;;18.90;99.90;;;;;;5019569;28;20056;-70
2022/08/03 05:38:57;;;;;;;6.47;1.60;;;19.10;99.90;;;;;;5036701;28;20048;-69
2022/08/03 05:41:23;;;;;;;6.95;1.60;;;19.20;99.90;;;;;;5020575;28;20041;-70
2022/08/03 05:43:49;;;;;;;6.72;1.98;;;19.60;99.90;;;;;;5014904;28;20125;-70
2022/08/03 05:46:15;;;;;;;8.48;1.80;;;19.90;99.90;;;;;;5036275;28;20049;-69
2022/08/03 05:48:41;;;;;;;10.23;1.83;;;20.30;99.90;;;;;;5015885;28;20049;-68
2022/08/03 05:51:09;;;;;;;12.40;1.63;;;20.50;99.90;;;;;;5039396;28;20068;-69
2022/08/03 05:53:36;;;;;;;9.35;1.80;;;20.50;99.90;;;;;;5044070;28;20493;-68
2022/08/03 05:56:02;;;;;;;9.57;1.60;;;20.60;99.90;;;;;;5043292;28;20153;-70
2022/08/03 05:58:28;;;;;;;11.00;1.50;;;20.60;99.90;;;;;;5027345;28;20124;-68
2022/08/03 06:00:53;;;;;;;8.05;1.52;;;20.80;99.90;;;;;;5044556;28;20446;-69
2022/08/03 06:03:19;;;;;;;9.18;1.20;;;21.10;99.90;;;;;;5046680;28;20070;-70
2022/08/03 06:05:45;;;;;;;13.10;1.55;;;21.30;99.90;;;;;;5018515;28;20155;-69
2022/08/03 06:08:10;;;;;;;13.95;1.30;;;21.50;99.90;;;;;;5051906;28;20042;-69
2022/08/03 06:10:36;;;;;;;11.40;1.83;;;21.60;99.90;;;;;;5033509;28;20595;-69
2022/08/03 06:13:02;;;;;;;8.07;1.63;;;21.80;99.90;;;;;;5022388;28;20488;-70
2022/08/03 06:15:28;;;;;;;10.18;1.35;;;21.70;99.90;;;;;;5035518;28;20057;-70
2022/08/03 06:17:56;;;;;;;9.63;1.13;;;21.80;99.90;;;;;;5045356;28;20567;-69
2022/08/03 06:20:21;;;;;;;12.75;1.38;;;21.90;99.90;;;;;;5010933;28;20045;-70
2022/08/03 06:22:47;;;;;;;9.95;1.48;;;22.10;99.90;;;;;;5040522;28;20056;-69
2022/08/03 06:25:13;;;;;;;9.00;1.52;;;22.10;99.90;;;;;;5051308;28;20598;-69
2022/08/03 06:27:39;;;;;;;8.18;1.23;;;22.20;99.90;;;;;;5036694;28;20121;-70
2022/08/03 06:30:09;;;;;;;9.43;1.10;;;22.40;99.90;;;;;;5040754;28;20041;-68
2022/08/03 06:32:36;;;;;;;5.55;0.85;;;22.40;99.90;;;;;;5048662;28;20152;-68
2022/08/03 06:35:03;;;;;;;8.57;1.20;;;22.20;99.90;;;;;;5041595;28;20045;-72
2022/08/03 06:37:29;;;;;;;9.30;1.67;;;22.30;99.90;;;;;;5041985;28;20044;-69
2022/08/03 06:39:54;;;;;;;6.88;1.20;;;22.60;99.90;;;;;;5044120;28;20479;-70
2022/08/03 06:42:20;;;;;;;6.57;1.00;;;22.60;99.90;;;;;;5009652;28;20041;-69
2022/08/03 06:44:46;;;;;;;6.28;1.33;;;22.60;99.90;;;;;;5038760;28;20508;-68
2022/08/03 06:47:12;;;;;;;6.18;0.90;;;22.80;99.90;;;;;;5022159;28;20110;-68
2022/08/03 06:49:39;;;;;;;10.10;1.38;;;22.90;99.90;;;;;;5004619;28;20435;-71
2022/08/03 06:52:05;;;;;;;10.18;1.35;;;22.90;99.90;;;;;;5033698;28;20132;-69
2022/08/03 06:54:31;;;;;;;7.80;1.25;;;22.60;99.90;;;;;;5035846;28;21133;-68
2022/08/03 06:56:56;;;;;;;7.95;1.23;;;22.70;99.90;;;;;;5044583;28;20060;-70
2022/08/03 06:59:22;;;;;;;11.25;1.20;;;23.00;99.90;;;;;;4999537;28;20764;-70
2022/08/03 07:01:48;;;;;;;9.38;1.35;;;23.00;99.90;;;;;;5044522;28;20681;-72
2022/08/03 07:04:13;;;;;;;7.50;1.10;;;23.00;99.90;;;;;;5039842;28;20702;-69
2022/08/03 07:06:39;;;;;;;7.53;0.93;;;23.30;99.90;;;;;;5037248;28;20439;-68
2022/08/03 07:09:05;;;;;;;7.15;1.10;;;23.10;99.90;;;;;;5019165;28;20538;-70
2022/08/03 07:11:30;;;;;;;12.23;1.75;;;23.20;99.90;;;;;;5046112;28;20048;-70
2022/08/03 07:13:56;;;;;;;7.32;1.30;;;23.30;99.90;;;;;;5018706;28;20191;-69
2022/08/03 07:16:22;;;;;;;9.25;1.25;;;23.50;99.90;;;;;;5024020;28;20430;-69
2022/08/03 07:18:48;;;;;;;8.05;1.40;;;23.60;99.90;;;;;;5043592;28;20504;-69
2022/08/03 07:21:15;;;;;;;9.77;1.33;;;23.90;99.90;;;;;;5048133;28;20048;-69
2022/08/03 07:23:41;;;;;;;10.23;1.50;;;23.90;99.90;;;;;;5045927;28;20407;-69
2022/08/03 07:26:06;;;;;;;9.75;1.85;;;24.00;99.90;;;;;;5034170;28;20683;-71
2022/08/03 07:28:32;;;;;;;7.00;1.38;;;24.10;99.90;;;;;;5033038;28;20121;-69
2022/08/03 07:30:58;;;;;;;9.40;1.58;;;23.80;99.90;;;;;;5053426;28;20098;-69
2022/08/03 07:33:24;;;;;;;9.27;1.88;;;23.90;99.90;;;;;;5035993;28;20061;-70
2022/08/03 07:35:50;;;;;;;7.05;1.23;;;23.90;99.90;;;;;;5044376;28;20411;-69
2022/08/03 07:38:15;;;;;;;11.30;1.55;;;23.90;99.90;;;;;;5040519;28;20053;-69
2022/08/03 07:40:41;;;;;;;11.02;1.92;;;23.90;99.90;;;;;;5034206;28;20639;-70
2022/08/03 07:43:07;;;;;;;10.63;1.30;;;24.30;99.90;;;;;;5038891;28;20625;-70
2022/08/03 07:45:32;;;;;;;6.32;1.25;;;24.60;99.90;;;;;;5023936;28;20049;-72
2022/08/03 07:47:58;;;;;;;11.73;1.60;;;24.70;99.90;;;;;;5018676;28;20762;-69
2022/08/03 07:50:24;;;;;;;7.72;1.67;;;24.90;99.90;;;;;;5029740;28;20045;-68
2022/08/03 07:52:51;;;;;;;10.45;1.70;;;24.90;99.90;;;;;;5049838;28;20858;-70
2022/08/03 07:55:19;;;;;;;7.53;1.58;;;24.70;99.90;;;;;;5013389;28;20814;-68
2022/08/03 07:57:45;;;;;;;8.90;1.33;;;24.90;99.90;;;;;;5037345;28;20520;-69
2022/08/03 08:00:18;;;;;;;5.88;1.50;;;24.90;99.90;;;;;;5037492;28;20048;-70
2022/08/03 08:02:44;;;;;;;11.52;1.65;;;25.00;99.90;;;;;;5052097;28;20055;-70
2022/08/03 08:05:11;;;;;;;8.57;1.65;;;25.00;99.90;;;;;;5034753;28;20417;-70
2022/08/03 08:07:37;;;;;;;9.38;1.58;;;25.00;99.90;;;;;;5051983;28;20044;-69
2022/08/03 08:10:11;;;;;;;9.38;1.38;;;25.30;99.90;;;;;;5050409;28;20407;-70
2022/08/03 08:12:38;;;;;;;8.35;1.40;;;25.60;99.90;;;;;;5013958;28;20539;-71
2022/08/03 08:15:05;;;;;;;8.40;1.25;;;25.70;99.90;;;;;;5030807;28;20067;-70
2022/08/03 08:17:30;;;;;;;5.25;0.98;;;26.00;99.90;;;;;;5049794;28;20499;-70
2022/08/03 08:19:56;;;;;;;8.82;1.10;;;26.00;99.90;;;;;;5049041;28;20044;-71
2022/08/03 08:22:22;;;;;;;11.02;1.60;;;26.00;99.90;;;;;;5049824;28;20141;-70
2022/08/03 08:24:48;;;;;;;9.57;1.55;;;26.20;99.90;;;;;;5030419;28;20241;-70
2022/08/03 08:27:14;;;;;;;7.60;1.33;;;26.40;99.90;;;;;;5048547;28;20044;-69
2022/08/03 08:29:40;;;;;;;5.97;1.40;;;26.50;99.90;;;;;;5049397;28;20044;-69
2022/08/03 08:32:05;;;;;;;9.20;1.25;;;26.50;99.90;;;;;;5049262;28;20083;-68
2022/08/03 08:34:31;;;;;;;5.88;1.30;;;26.50;99.90;;;;;;5048245;28;20052;-70
2022/08/03 08:36:57;;;;;;;9.05;1.60;;;26.60;99.90;;;;;;5049109;28;20411;-72
2022/08/03 08:39:23;;;;;;;7.22;1.30;;;26.70;99.90;;;;;;5048586;28;20628;-69
2022/08/03 08:41:51;;;;;;;6.70;1.33;;;26.70;99.90;;;;;;5049217;28;20041;-70
2022/08/03 08:44:17;;;;;;;6.40;1.30;;;26.30;99.90;;;;;;5048221;28;20084;-69
2022/08/03 08:46:43;;;;;;;7.38;1.10;;;26.20;99.90;;;;;;5012571;28;20137;-68
2022/08/03 08:49:11;;;;;;;6.72;1.17;;;26.20;99.90;;;;;;5030144;28;20083;-69
2022/08/03 08:51:39;;;;;;;9.02;1.25;;;26.40;99.90;;;;;;5029957;28;20098;-71
2022/08/03 08:54:07;;;;;;;5.93;1.23;;;26.40;99.90;;;;;;5026320;28;20076;-69
2022/08/03 08:56:34;;;;;;;5.60;0.95;;;26.60;99.90;;;;;;5031198;28;20162;-70
2022/08/03 08:59:01;;;;;;;7.45;1.40;;;26.60;99.90;;;;;;5030734;28;20049;-70
2022/08/03 09:01:27;;;;;;;7.15;0.95;;;26.50;99.90;;;;;;5026629;28;20118;-70
2022/08/03 09:03:54;;;;;;;7.28;1.40;;;26.70;99.90;;;;;;5031969;28;20442;-70
2022/08/03 09:06:21;;;;;;;4.18;0.95;;;26.70;99.90;;;;;;5029651;28;20544;-70
2022/08/03 09:08:47;;;;;;;6.55;1.40;;;26.50;99.90;;;;;;5029432;28;20041;-70
2022/08/03 09:11:13;;;;;;;6.18;1.33;;;26.50;99.90;;;;;;5012443;28;20052;-70
2022/08/03 09:13:39;;;;;;;6.93;1.10;;;26.50;99.90;;;;;;5038373;28;20369;-69
2022/08/03 09:16:15;;;;;;;7.63;1.30;;;26.60;99.90;;;;;;5033421;28;20110;-69
2022/08/03 09:18:49;;;;;;;7.30;1.38;;;26.70;99.90;;;;;;5010969;28;20094;-72
2022/08/03 09:21:25;;;;;;;6.28;1.05;;;26.70;99.90;;;;;;5048770;28;20155;-71
2022/08/03 09:23:56;;;;;;;9.55;1.70;;;27.00;99.90;;;;;;5030892;28;20052;-69
2022/08/03 09:26:27;;;;;;;5.80;1.30;;;27.20;99.90;;;;;;5046678;28;20138;-70
2022/08/03 09:28:58;;;;;;;10.55;1.35;;;27.50;99.90;;;;;;5030900;28;20040;-71
2022/08/03 09:31:31;;;;;;;8.45;1.40;;;27.80;99.90;;;;;;5036604;28;20075;-70
2022/08/03 09:34:00;;;;;;;7.30;1.50;;;27.80;99.90;;;;;;5044394;28;20426;-71
2022/08/03 09:36:47;;;;;;;3.60;0.90;;;27.80;99.90;;;;;;5051915;28;20127;-70
2022/08/03 09:39:25;;;;;;;6.80;1.23;;;27.80;99.90;;;;;;5022194;28;20041;-69
2022/08/03 09:42:16;;;;;;;8.15;1.20;;;27.70;99.90;;;;;;5036676;28;20060;-69
2022/08/03 09:44:42;;;;;;;7.38;1.17;;;28.10;99.90;;;;;;5003933;28;20244;-71
2022/08/03 09:47:09;;;;;;;10.52;1.60;;;28.10;99.90;;;;;;5037021;28;20419;-70
2022/08/03 09:49:43;;;;;;;8.98;1.33;;;28.10;99.90;;;;;;5038725;28;20492;-70
2022/08/03 09:52:13;;;;;;;7.57;1.83;;;28.20;99.90;;;;;;5049742;28;20048;-70
2022/08/03 09:54:39;;;;;;;6.45;1.30;;;28.10;99.90;;;;;;5039558;28;20406;-71
2022/08/03 09:57:05;;;;;;;11.48;1.60;;;27.80;99.90;;;;;;5052900;28;20053;-69
2022/08/03 09:59:32;;;;;;;8.70;1.42;;;27.80;99.90;;;;;;5051648;28;20458;-70
2022/08/03 10:01:58;;;;;;;8.05;1.50;;;28.00;99.90;;;;;;5040568;28;20056;-71
2022/08/03 10:04:25;;;;;;;8.90;1.25;;;28.30;99.90;;;;;;5029317;28;20049;-70
2022/08/03 10:07:03;;;;;;;9.98;1.30;;;28.70;99.90;;;;;;5038859;28;20527;-72
2022/08/03 10:09:29;;;;;;;7.25;1.10;;;28.70;99.90;;;;;;5038703;28;20045;-70
2022/08/03 10:11:55;;;;;;;6.20;1.23;;;28.80;99.90;;;;;;5056356;28;20059;-71
2022/08/03 10:14:22;;;;;;;6.53;1.10;;;28.80;99.90;;;;;;5031023;28;20052;-71
2022/08/03 10:16:48;;;;;;;6.72;1.20;;;28.70;99.90;;;;;;5042024;28;20087;-70
2022/08/03 10:19:15;;;;;;;8.20;1.50;;;28.20;99.90;;;;;;5057304;28;20561;-71
2022/08/03 10:21:48;;;;;;;7.10;1.58;;;27.90;99.90;;;;;;5039536;28;20055;-71
2022/08/03 10:24:19;;;;;;;8.43;2.05;;;27.50;99.90;;;;;;5039874;28;20040;-70
2022/08/03 10:26:46;;;;;;;8.15;1.40;;;27.00;99.90;;;;;;5039918;28;20045;-69
2022/08/03 10:29:20;;;;;;;7.63;1.35;;;26.70;99.90;;;;;;5039593;28;20350;-71
2022/08/03 10:31:47;;;;;;;6.65;1.50;;;27.10;99.90;;;;;;5038232;28;20055;-71
2022/08/03 10:34:24;;;;;;;6.65;1.30;;;27.50;99.90;;;;;;5038225;28;20083;-70
2022/08/03 10:36:55;;;;;;;9.48;2.10;;;28.00;99.90;;;;;;5057317;28;20139;-69
2022/08/03 10:39:26;;;;;;;6.72;1.88;;;27.70;99.90;;;;;;5025990;28;20496;-69
2022/08/03 10:41:54;;;;;;;8.57;1.65;;;27.60;99.90;;;;;;5033094;28;20413;-71
2022/08/03 10:44:23;;;;;;;9.80;1.80;;;27.90;99.90;;;;;;5035217;28;20448;-70
2022/08/03 10:46:50;;;;;;;9.73;1.90;;;27.90;99.90;;;;;;5035177;28;20337;-71
2022/08/03 10:49:19;;;;;;;6.88;1.67;;;27.40;99.90;;;;;;5004605;28;20044;-71
2022/08/03 10:51:46;;;;;;;9.82;1.65;;;27.40;99.90;;;;;;5044942;28;20044;-71
2022/08/03 10:54:34;;;;;;;9.15;1.52;;;27.40;99.90;;;;;;5008953;28;20745;-71
2022/08/03 10:59:49;;;;;;;7.30;1.80;;;27.10;99.90;;;;;;5007214;28;20063;-70
2022/08/03 11:02:16;;;;;;;9.90;2.37;;;27.20;99.90;;;;;;5016930;28;20041;-71
2022/08/03 11:04:45;;;;;;;8.23;1.55;;;27.20;99.90;;;;;;5041674;28;20052;-70
2022/08/03 11:07:21;;;;;;;12.68;2.05;;;27.50;99.90;;;;;;5036126;28;20032;-71
2022/08/03 11:09:56;;;;;;;8.38;1.67;;;27.80;99.90;;;;;;5034800;28;20040;-70
2022/08/03 11:12:26;;;;;;;8.55;1.40;;;27.90;99.90;;;;;;5034539;28;20047;-71
2022/08/03 11:14:54;;;;;;;8.52;1.98;;;27.90;99.90;;;;;;5034284;28;20135;-72
2022/08/03 11:17:21;;;;;;;10.85;1.60;;;28.10;99.90;;;;;;5001678;28;20056;-70
2022/08/03 11:19:51;;;;;;;10.70;1.63;;;27.90;99.90;;;;;;5039154;28;20927;-71
2022/08/03 11:22:19;;;;;;;6.40;1.52;;;28.10;99.90;;;;;;5042864;28;20040;-72
2022/08/03 11:24:53;;;;;;;13.18;1.73;;;28.20;99.90;;;;;;5048584;28;20048;-71
2022/08/03 11:27:23;;;;;;;10.80;1.55;;;28.50;99.90;;;;;;5051686;28;20920;-70
2022/08/03 11:30:00;;;;;;;9.95;1.33;;;28.90;99.90;;;;;;5045225;28;20052;-71
2022/08/03 11:32:47;;;;;;;6.97;1.40;;;29.20;99.90;;;;;;5017097;28;20052;-71
2022/08/03 11:35:34;;;;;;;8.48;1.40;;;29.60;99.90;;;;;;5029388;28;20579;-70
2022/08/03 11:38:01;;;;;;;6.88;1.42;;;29.80;99.90;;;;;;5029675;28;20045;-70
2022/08/03 11:40:46;;;;;;;10.77;1.50;;;30.10;99.90;;;;;;5047699;28;20118;-71
2022/08/03 11:43:21;;;;;;;8.63;1.25;;;30.50;99.90;;;;;;5052052;28;20048;-70
2022/08/03 11:46:01;;;;;;;8.43;1.50;;;30.50;99.90;;;;;;5052199;28;20657;-71
2022/08/03 11:48:38;;;;;;;9.93;1.80;;;30.20;99.90;;;;;;5018720;28;20059;-71
2022/08/03 11:51:06;;;;;;;6.85;1.23;;;30.20;99.90;;;;;;5040290;28;20310;-71
2022/08/03 11:53:33;;;;;;;9.35;1.23;;;30.10;99.90;;;;;;5046081;28;20048;-71
2022/08/03 11:56:01;;;;;;;9.93;1.48;;;30.30;99.90;;;;;;5029481;28;20503;-69
2022/08/03 11:58:28;;;;;;;9.48;1.60;;;30.40;99.90;;;;;;5052612;28;20125;-71
2022/08/03 12:01:07;;;;;;;9.63;1.65;;;30.50;99.90;;;;;;5044237;28;20052;-72
2022/08/03 12:03:34;;;;;;;10.50;1.77;;;30.70;99.90;;;;;;5041714;28;20511;-71
2022/08/03 12:06:03;;;;;;;8.88;1.20;;;30.90;99.90;;;;;;5015759;28;20091;-70
2022/08/03 12:08:33;;;;;;;10.00;1.27;;;31.00;99.90;;;;;;5015583;28;20970;-71
2022/08/03 12:11:03;;;;;;;8.30;1.30;;;31.40;99.90;;;;;;5020191;28;20376;-72
2022/08/03 12:13:44;;;;;;;7.80;1.30;;;31.60;99.90;;;;;;5044458;28;20703;-71
2022/08/03 12:16:17;;;;;;;10.50;1.45;;;31.80;99.90;;;;;;5050944;28;20087;-71
2022/08/03 12:18:42;;;;;;;7.90;1.27;;;31.70;99.90;;;;;;5033279;28;20376;-70
2022/08/03 12:21:09;;;;;;;10.75;1.73;;;31.70;99.90;;;;;;5014821;28;20318;-71
2022/08/03 12:23:36;;;;;;;10.55;1.48;;;31.60;99.90;;;;;;5030962;28;20080;-71
2022/08/03 12:26:08;;;;;;;13.10;1.60;;;31.70;99.90;;;;;;5033656;28;20090;-72
2022/08/03 12:28:35;;;;;;;10.27;1.65;;;31.70;99.90;;;;;;5031541;28;20468;-69
2022/08/03 12:31:12;;;;;;;13.43;2.08;;;31.90;99.90;;;;;;5041628;28;20155;-69
2022/08/03 12:34:03;;;;;;;12.73;1.60;;;31.80;99.70;;;;;;5037783;28;20308;-71
2022/08/03 12:36:32;;;;;;;10.32;1.70;;;31.70;99.90;;;;;;5045115;28;20489;-71
2022/08/03 12:39:08;;;;;;;11.30;1.90;;;31.90;99.90;;;;;;5042437;28;20486;-71
2022/08/03 12:41:36;;;;;;;13.25;1.50;;;31.70;96.50;;;;;;5039092;28;20114;-70
2022/08/03 12:44:04;;;;;;;14.20;1.67;;;31.90;97.20;;;;;;5040244;28;20175;-70
2022/08/03 12:46:33;;;;;;;12.02;1.60;;;31.90;97.20;;;;;;5014565;28;20076;-71
2022/08/03 12:49:10;;;;;;;13.15;2.17;;;32.10;95.40;;;;;;5032347;28;20496;-71
2022/08/03 12:51:49;;;;;;;10.50;2.13;;;32.20;95.00;;;;;;5041829;28;20067;-71
2022/08/03 12:54:16;;;;;;;11.45;1.80;;;32.10;94.50;;;;;;5033294;28;20040;-72
2022/08/03 12:57:00;;;;;;;11.75;2.03;;;32.30;93.40;;;;;;5033570;28;20063;-71
2022/08/03 12:59:29;;;;;;;13.57;2.80;;;32.10;93.80;;;;;;5045717;28;20392;-71
2022/08/03 13:01:55;;;;;;;10.15;2.03;;;32.20;93.00;;;;;;5014942;28;20586;-71
2022/08/03 13:04:32;;;;;;;14.93;2.25;;;32.10;93.60;;;;;;4997479;28;20135;-70
2022/08/03 13:07:01;;;;;;;14.18;2.33;;;32.20;93.50;;;;;;5049159;28;20447;-72